Time;durP1;ratioP1;P1;durP2;ratioP2;P2;SDS_P1;SDS_P2;PMS_P1;PMS_P2;Temp;Humidity;BMP_temperature;BMP_pressure;BME280_temperature;BME280_humidity;BME280_pressure;Samples;Min_cycle;Max_cycle;Signal;HPM_P1;HPM_P2
2020/12/26 00:01:22;;;;;;;14.80;12.57;;;4.00;74.70;;;;;;5005570;28;20117;-74
2020/12/26 00:03:49;;;;;;;16.15;11.57;;;4.00;74.70;;;;;;5005194;28;20423;-75
2020/12/26 00:06:20;;;;;;;15.90;11.05;;;4.00;74.70;;;;;;5004891;28;20366;-74
2020/12/26 00:08:46;;;;;;;14.32;11.32;;;4.00;74.70;;;;;;5006762;28;20358;-74
2020/12/26 00:11:14;;;;;;;15.10;11.55;;;4.00;74.60;;;;;;5006028;28;20761;-73
2020/12/26 00:13:40;;;;;;;14.02;11.77;;;4.00;74.60;;;;;;5004706;28;20040;-73
2020/12/26 00:16:08;;;;;;;12.63;10.88;;;4.00;74.60;;;;;;4988762;28;20628;-74
2020/12/26 00:18:34;;;;;;;12.20;10.23;;;4.00;75.10;;;;;;5005208;28;20033;-74
2020/12/26 00:21:06;;;;;;;13.88;10.18;;;4.10;74.80;;;;;;5006862;28;20073;-73
2020/12/26 00:23:31;;;;;;;13.93;10.90;;;4.10;74.80;;;;;;5006450;28;20127;-74
2020/12/26 00:25:57;;;;;;;13.40;9.95;;;4.10;74.80;;;;;;5004759;28;20030;-73
2020/12/26 00:28:23;;;;;;;13.93;10.30;;;4.10;74.80;;;;;;5006214;28;20141;-72
2020/12/26 00:30:49;;;;;;;11.13;9.48;;;4.20;75.00;;;;;;5004934;28;20072;-71
2020/12/26 00:33:15;;;;;;;13.35;10.23;;;4.20;74.90;;;;;;5004342;28;20072;-73
2020/12/26 00:35:42;;;;;;;11.23;9.85;;;4.20;74.90;;;;;;5001417;28;20062;-72
2020/12/26 00:38:08;;;;;;;15.35;9.68;;;4.20;74.90;;;;;;4992857;28;20037;-73
2020/12/26 00:40:34;;;;;;;12.70;8.95;;;4.20;74.90;;;;;;5003770;28;20026;-72
2020/12/26 00:43:00;;;;;;;12.70;9.68;;;4.30;75.00;;;;;;4987992;28;20077;-72
2020/12/26 00:45:26;;;;;;;13.65;10.13;;;4.30;75.00;;;;;;5005727;28;20034;-73
2020/12/26 00:47:52;;;;;;;15.40;9.57;;;4.30;75.40;;;;;;5003996;28;20026;-73
2020/12/26 00:50:18;;;;;;;14.23;9.88;;;4.30;74.90;;;;;;4987819;28;20049;-73
2020/12/26 00:52:45;;;;;;;11.27;9.13;;;4.30;74.90;;;;;;5004115;28;20152;-73
2020/12/26 00:55:11;;;;;;;10.13;8.43;;;4.30;74.90;;;;;;5003737;28;20029;-73
2020/12/26 00:57:37;;;;;;;11.23;9.05;;;4.30;74.90;;;;;;4987616;28;20030;-73
2020/12/26 01:00:05;;;;;;;13.15;9.43;;;4.30;74.90;;;;;;5003576;28;20473;-74
2020/12/26 01:02:40;;;;;;;11.70;9.20;;;4.30;74.90;;;;;;5003627;28;20084;-72
2020/12/26 01:05:06;;;;;;;10.57;9.00;;;4.30;74.90;;;;;;5002874;28;20037;-73
2020/12/26 01:07:32;;;;;;;10.35;8.05;;;4.30;74.90;;;;;;5004223;28;20030;-73
2020/12/26 01:09:58;;;;;;;10.48;8.90;;;4.30;74.90;;;;;;4985873;28;20117;-74
2020/12/26 01:12:24;;;;;;;10.05;8.00;;;4.30;74.90;;;;;;4987197;28;20460;-73
2020/12/26 01:14:50;;;;;;;10.52;9.02;;;4.30;74.90;;;;;;5003742;28;20040;-73
2020/12/26 01:17:16;;;;;;;11.20;9.07;;;4.30;75.00;;;;;;4986818;28;20485;-73
2020/12/26 01:19:42;;;;;;;10.65;8.55;;;4.30;75.00;;;;;;5003470;28;20116;-74
2020/12/26 01:22:08;;;;;;;10.50;7.93;;;4.30;75.00;;;;;;5004249;28;20109;-74
2020/12/26 01:24:33;;;;;;;10.75;8.50;;;4.30;75.00;;;;;;5004570;28;20084;-74
2020/12/26 01:26:59;;;;;;;13.70;9.05;;;4.30;75.50;;;;;;5005125;28;20070;-75
2020/12/26 01:29:25;;;;;;;11.75;8.30;;;4.40;75.20;;;;;;5003219;28;20069;-74
2020/12/26 01:31:52;;;;;;;8.73;7.85;;;4.30;75.00;;;;;;5002957;28;20030;-75
2020/12/26 01:34:19;;;;;;;9.73;6.90;;;4.40;75.20;;;;;;5003363;28;20113;-73
2020/12/26 01:36:52;;;;;;;7.78;6.93;;;4.40;75.20;;;;;;5003164;28;20453;-74
2020/12/26 01:39:20;;;;;;;9.38;7.35;;;4.40;75.20;;;;;;5003662;28;20034;-74
2020/12/26 01:41:54;;;;;;;12.18;7.30;;;4.40;75.20;;;;;;4987086;28;20037;-74
2020/12/26 01:44:21;;;;;;;8.20;6.78;;;4.50;75.30;;;;;;5004873;28;20091;-74
2020/12/26 01:46:52;;;;;;;8.20;6.40;;;4.50;75.30;;;;;;5002343;28;20642;-73
2020/12/26 01:49:20;;;;;;;9.90;7.15;;;4.50;75.30;;;;;;5002721;28;20370;-73
2020/12/26 01:51:47;;;;;;;8.70;6.43;;;4.50;75.30;;;;;;4986776;28;20120;-74
2020/12/26 01:54:13;;;;;;;8.95;6.22;;;4.50;75.30;;;;;;5004114;28;20176;-73
2020/12/26 01:56:40;;;;;;;9.05;6.43;;;4.50;75.20;;;;;;5002707;28;20393;-74
2020/12/26 01:59:07;;;;;;;8.07;6.05;;;4.60;75.40;;;;;;5019258;28;20033;-73
2020/12/26 02:01:39;;;;;;;8.43;6.85;;;4.60;75.40;;;;;;4986990;28;20420;-74
2020/12/26 02:04:05;;;;;;;8.68;6.38;;;4.60;75.40;;;;;;5002840;28;20140;-73
2020/12/26 02:06:52;;;;;;;7.15;6.30;;;4.60;75.40;;;;;;5002526;28;20413;-73
2020/12/26 02:09:19;;;;;;;6.15;5.35;;;4.60;75.30;;;;;;5002433;28;20445;-73
2020/12/26 02:11:46;;;;;;;8.20;6.18;;;4.70;75.50;;;;;;5002985;28;20081;-73
2020/12/26 02:14:12;;;;;;;7.65;5.90;;;4.70;75.50;;;;;;5003121;28;20034;-73
2020/12/26 02:16:54;;;;;;;9.85;6.07;;;4.70;75.50;;;;;;5003674;28;20069;-72
2020/12/26 02:19:25;;;;;;;7.90;5.80;;;4.70;75.50;;;;;;5004343;28;20478;-72
2020/12/26 02:21:51;;;;;;;8.25;5.90;;;4.70;75.50;;;;;;5003948;28;20033;-73
2020/12/26 02:24:18;;;;;;;7.13;5.82;;;4.70;75.50;;;;;;5004317;28;20049;-72
2020/12/26 02:26:44;;;;;;;8.55;5.65;;;4.70;75.50;;;;;;5002703;28;20084;-72
2020/12/26 02:29:10;;;;;;;6.72;5.88;;;4.70;75.50;;;;;;5004765;28;20107;-72
2020/12/26 02:31:36;;;;;;;6.63;5.15;;;4.80;75.60;;;;;;5002714;28;20478;-72
2020/12/26 02:34:03;;;;;;;7.35;5.28;;;4.80;75.70;;;;;;5009270;28;20029;-72
2020/12/26 02:36:29;;;;;;;6.95;5.35;;;4.90;75.80;;;;;;4990398;28;20120;-73
2020/12/26 02:38:55;;;;;;;6.88;4.85;;;4.90;75.80;;;;;;4992512;28;20049;-72
2020/12/26 02:41:21;;;;;;;5.43;4.88;;;4.90;75.80;;;;;;5005292;28;20026;-73
2020/12/26 02:43:47;;;;;;;5.88;5.18;;;4.90;75.80;;;;;;5004500;28;20041;-73
2020/12/26 02:46:13;;;;;;;7.35;5.53;;;4.90;75.70;;;;;;5001604;28;20038;-74
2020/12/26 02:48:39;;;;;;;8.93;5.80;;;5.00;75.90;;;;;;5020230;28;20458;-73
2020/12/26 02:51:05;;;;;;;5.20;4.70;;;5.00;75.90;;;;;;4992128;28;20026;-73
2020/12/26 02:53:31;;;;;;;8.27;5.20;;;5.00;75.80;;;;;;4988731;28;20035;-73
2020/12/26 02:55:57;;;;;;;5.50;4.55;;;5.00;75.80;;;;;;4988291;28;20029;-74
2020/12/26 02:58:23;;;;;;;7.65;5.13;;;5.00;75.80;;;;;;4992439;28;20490;-73
2020/12/26 03:00:49;;;;;;;6.20;5.22;;;5.00;75.80;;;;;;4991753;28;20058;-74
2020/12/26 03:03:16;;;;;;;5.75;4.13;;;5.00;75.80;;;;;;4993017;28;20480;-73
2020/12/26 03:05:42;;;;;;;6.22;4.50;;;5.10;75.90;;;;;;4993386;28;20513;-74
2020/12/26 03:08:08;;;;;;;6.32;4.50;;;5.10;76.40;;;;;;4993136;28;20494;-73
2020/12/26 03:10:34;;;;;;;4.47;3.92;;;5.10;75.90;;;;;;4991399;28;20057;-73
2020/12/26 03:13:00;;;;;;;10.75;4.88;;;5.10;75.90;;;;;;4992730;28;20121;-71
2020/12/26 03:15:26;;;;;;;8.63;5.13;;;5.10;75.90;;;;;;4993461;28;20512;-72
2020/12/26 03:17:52;;;;;;;5.78;4.20;;;5.10;75.90;;;;;;5008120;28;20026;-72
2020/12/26 03:20:18;;;;;;;5.63;4.18;;;5.10;75.90;;;;;;5007565;28;20114;-72
2020/12/26 03:22:44;;;;;;;4.63;4.15;;;5.20;76.10;;;;;;4992017;28;20034;-72
2020/12/26 03:25:11;;;;;;;5.43;4.93;;;5.20;76.00;;;;;;4992725;28;20069;-73
2020/12/26 03:27:37;;;;;;;6.00;4.40;;;5.20;76.00;;;;;;5007590;28;20035;-75
2020/12/26 03:30:04;;;;;;;6.57;4.15;;;5.20;76.00;;;;;;4991496;28;20433;-73
2020/12/26 03:32:30;;;;;;;6.15;4.45;;;5.20;76.10;;;;;;4992562;28;20030;-73
2020/12/26 03:34:56;;;;;;;8.32;4.47;;;5.30;76.20;;;;;;4990538;28;20034;-74
2020/12/26 03:37:22;;;;;;;4.18;3.78;;;5.30;76.20;;;;;;4992556;28;20413;-73
2020/12/26 03:39:48;;;;;;;5.50;4.28;;;5.30;76.20;;;;;;4990526;28;20406;-73
2020/12/26 03:42:14;;;;;;;3.75;3.40;;;5.30;76.20;;;;;;5007452;28;20037;-73
2020/12/26 03:44:40;;;;;;;9.55;4.30;;;5.30;76.20;;;;;;4992638;28;20042;-73
2020/12/26 03:47:08;;;;;;;4.57;3.67;;;5.30;76.20;;;;;;4992078;28;20049;-73
2020/12/26 03:49:35;;;;;;;5.57;3.92;;;5.30;76.20;;;;;;4992230;28;20066;-74
2020/12/26 03:52:01;;;;;;;9.00;4.30;;;5.40;76.40;;;;;;4991655;28;20188;-73
2020/12/26 03:54:27;;;;;;;5.20;4.22;;;5.40;76.30;;;;;;5006540;28;20041;-73
2020/12/26 03:56:53;;;;;;;4.80;4.30;;;5.40;76.30;;;;;;5006768;28;20034;-73
2020/12/26 03:59:19;;;;;;;4.32;3.97;;;5.40;76.30;;;;;;5009515;28;20263;-73
2020/12/26 04:01:45;;;;;;;4.97;3.80;;;5.40;76.30;;;;;;4994148;28;20027;-72
2020/12/26 04:04:15;;;;;;;4.32;3.72;;;5.40;76.30;;;;;;5015181;28;20042;-73
2020/12/26 04:06:42;;;;;;;5.55;3.67;;;5.50;76.40;;;;;;5006457;28;20034;-72
2020/12/26 04:09:09;;;;;;;4.78;3.47;;;5.50;76.40;;;;;;4990695;28;20030;-72
2020/12/26 04:11:35;;;;;;;4.95;3.97;;;5.50;76.40;;;;;;4990525;28;20107;-72
2020/12/26 04:14:01;;;;;;;4.78;3.58;;;5.50;76.40;;;;;;4991397;28;20121;-73
2020/12/26 04:16:27;;;;;;;3.90;3.50;;;5.50;76.40;;;;;;5006235;28;20038;-72
2020/12/26 04:18:53;;;;;;;4.55;4.13;;;5.50;76.40;;;;;;4990046;28;20026;-71
2020/12/26 04:21:26;;;;;;;4.22;3.38;;;5.60;76.50;;;;;;4991210;28;20041;-73
2020/12/26 04:23:52;;;;;;;5.15;3.45;;;5.60;76.50;;;;;;4991134;28;20034;-72
2020/12/26 04:26:19;;;;;;;5.85;3.15;;;5.60;76.50;;;;;;4991006;28;20041;-72
2020/12/26 04:28:45;;;;;;;5.60;3.47;;;5.60;76.50;;;;;;4991183;28;20035;-72
2020/12/26 04:31:11;;;;;;;7.82;3.55;;;5.60;76.50;;;;;;5005375;28;20702;-71
2020/12/26 04:33:37;;;;;;;3.53;3.22;;;5.60;76.50;;;;;;5007086;28;20053;-73
2020/12/26 04:36:04;;;;;;;6.40;3.60;;;5.70;76.70;;;;;;5008244;28;20490;-73
2020/12/26 04:38:32;;;;;;;3.05;2.83;;;5.70;76.70;;;;;;5007389;28;20037;-72
2020/12/26 04:40:58;;;;;;;3.45;3.00;;;5.70;76.70;;;;;;5005913;28;20031;-72
2020/12/26 04:43:25;;;;;;;4.47;3.00;;;5.70;76.70;;;;;;4993641;28;20034;-74
2020/12/26 04:45:54;;;;;;;4.50;3.13;;;5.70;76.70;;;;;;5008053;28;20478;-73
2020/12/26 04:48:24;;;;;;;3.70;2.95;;;5.70;76.70;;;;;;4990512;28;20085;-73
2020/12/26 04:50:55;;;;;;;5.05;3.28;;;5.70;76.70;;;;;;4990755;28;20035;-72
2020/12/26 04:53:31;;;;;;;3.58;2.83;;;5.80;76.80;;;;;;4991209;28;20026;-72
2020/12/26 04:56:02;;;;;;;3.20;2.88;;;5.80;76.80;;;;;;4990673;28;20054;-72
2020/12/26 04:58:29;;;;;;;3.42;2.90;;;5.80;76.80;;;;;;4990729;28;20032;-72
2020/12/26 05:00:55;;;;;;;5.03;2.50;;;5.80;76.70;;;;;;4990694;28;20112;-73
2020/12/26 05:03:26;;;;;;;4.32;3.15;;;5.80;76.70;;;;;;4990439;28;20117;-73
2020/12/26 05:05:59;;;;;;;4.38;3.10;;;5.80;76.70;;;;;;4990284;28;20022;-73
2020/12/26 05:08:25;;;;;;;2.70;2.50;;;5.80;76.70;;;;;;5005251;28;20437;-73
2020/12/26 05:10:52;;;;;;;4.60;2.95;;;5.80;76.70;;;;;;5004943;28;20027;-72
2020/12/26 05:13:18;;;;;;;4.03;2.83;;;5.80;76.70;;;;;;5005768;28;20031;-72
2020/12/26 05:15:44;;;;;;;6.10;3.05;;;5.90;76.80;;;;;;5005347;28;20088;-72
2020/12/26 05:18:10;;;;;;;2.70;2.50;;;5.90;76.80;;;;;;5005509;28;20034;-72
2020/12/26 05:20:35;;;;;;;2.83;2.53;;;5.90;76.80;;;;;;4990198;28;20034;-72
2020/12/26 05:23:13;;;;;;;3.50;3.03;;;5.90;76.80;;;;;;5004987;28;20144;-72
2020/12/26 05:25:44;;;;;;;3.28;2.90;;;5.90;76.80;;;;;;5005104;28;20034;-71
2020/12/26 05:28:16;;;;;;;4.07;3.15;;;5.90;76.80;;;;;;5005415;28;20057;-72
2020/12/26 05:30:43;;;;;;;3.60;2.60;;;5.90;76.80;;;;;;5005011;28;20512;-71
2020/12/26 05:33:11;;;;;;;3.65;2.95;;;5.90;76.80;;;;;;4988847;28;20036;-71
2020/12/26 05:35:42;;;;;;;5.22;3.00;;;6.00;77.00;;;;;;4990061;28;20037;-71
2020/12/26 05:38:14;;;;;;;6.07;2.75;;;6.00;77.00;;;;;;4990022;28;20129;-73
2020/12/26 05:40:50;;;;;;;3.10;2.70;;;6.00;77.00;;;;;;5004367;28;20026;-72
2020/12/26 05:43:22;;;;;;;2.58;2.30;;;6.00;77.00;;;;;;4989962;28;20038;-72
2020/12/26 05:45:49;;;;;;;3.08;2.50;;;6.00;77.00;;;;;;5005018;28;20517;-71
2020/12/26 05:48:20;;;;;;;2.65;2.03;;;6.00;77.00;;;;;;4996347;28;20434;-72
2020/12/26 05:50:47;;;;;;;3.10;2.80;;;6.10;77.10;;;;;;4986527;28;20026;-72
2020/12/26 05:53:15;;;;;;;3.15;2.83;;;6.10;77.20;;;;;;4985297;28;20143;-72
2020/12/26 05:55:43;;;;;;;2.63;2.42;;;6.10;77.10;;;;;;4985444;28;20042;-73
2020/12/26 05:58:10;;;;;;;3.63;2.45;;;6.10;77.20;;;;;;4975276;28;20485;-73
2020/12/26 06:00:41;;;;;;;2.75;2.15;;;6.10;77.10;;;;;;5004305;28;20057;-73
2020/12/26 06:03:21;;;;;;;5.15;2.10;;;6.10;77.10;;;;;;5002666;28;20038;-72
2020/12/26 06:05:48;;;;;;;3.13;2.20;;;6.20;77.30;;;;;;5019100;28;20334;-72
2020/12/26 06:08:18;;;;;;;2.40;2.20;;;6.20;77.20;;;;;;5004596;28;20432;-73
2020/12/26 06:10:52;;;;;;;2.55;2.35;;;6.20;77.20;;;;;;5003961;28;20022;-71
2020/12/26 06:13:19;;;;;;;;;;;6.20;77.20;;;;;;5003425;28;20477;-74
2020/12/26 06:16:09;;;;;;;2.72;2.35;;;6.20;77.20;;;;;;5005094;28;20367;-73
2020/12/26 06:18:40;;;;;;;2.63;2.22;;;6.20;77.10;;;;;;4997736;28;20065;-72
2020/12/26 06:21:07;;;;;;;3.53;2.35;;;6.20;77.10;;;;;;5004009;28;20068;-74
2020/12/26 06:23:37;;;;;;;2.22;2.10;;;6.30;77.30;;;;;;5004597;28;20317;-74
2020/12/26 06:26:05;;;;;;;2.30;2.10;;;6.30;77.30;;;;;;4985118;28;20327;-72
2020/12/26 06:28:33;;;;;;;2.40;2.20;;;6.30;77.30;;;;;;5002306;28;20430;-77
2020/12/26 06:31:04;;;;;;;2.67;2.20;;;6.30;77.30;;;;;;5004028;28;20117;-73
2020/12/26 06:33:51;;;;;;;2.90;2.20;;;6.30;77.30;;;;;;5007155;28;20287;-73
2020/12/26 06:36:19;;;;;;;4.38;2.42;;;6.30;77.30;;;;;;4990684;28;20128;-74
2020/12/26 06:38:45;;;;;;;3.40;2.28;;;6.30;77.30;;;;;;5007878;28;20034;-74
2020/12/26 06:41:15;;;;;;;2.25;2.05;;;6.40;77.50;;;;;;5007050;28;20294;-74
2020/12/26 06:43:51;;;;;;;6.20;2.42;;;6.40;77.50;;;;;;5007477;28;20106;-74
2020/12/26 06:46:17;;;;;;;1.90;1.80;;;6.40;77.50;;;;;;5009650;28;20057;-73
2020/12/26 06:48:44;;;;;;;2.33;2.00;;;6.40;77.50;;;;;;5008089;28;20112;-73
2020/12/26 06:51:41;;;;;;;2.42;2.20;;;6.40;77.50;;;;;;5007025;28;20049;-72
2020/12/26 06:54:07;;;;;;;2.72;2.10;;;6.40;77.50;;;;;;5007332;28;20044;-76
2020/12/26 06:56:33;;;;;;;2.83;2.00;;;6.40;77.40;;;;;;5006820;28;20088;-73
2020/12/26 06:59:05;;;;;;;2.42;2.22;;;6.50;77.70;;;;;;5008239;28;20042;-74
2020/12/26 07:01:36;;;;;;;5.80;2.10;;;6.50;77.70;;;;;;5006651;28;20363;-72
2020/12/26 07:04:12;;;;;;;2.92;2.22;;;6.50;77.70;;;;;;5007918;28;20059;-72
2020/12/26 07:06:50;;;;;;;3.10;2.35;;;6.60;78.00;;;;;;4991422;28;20038;-72
2020/12/26 07:09:34;;;;;;;2.72;2.30;;;6.60;78.00;;;;;;5008464;28;20680;-72
2020/12/26 07:12:01;;;;;;;2.92;2.25;;;6.60;78.00;;;;;;5007765;28;20022;-72
2020/12/26 07:14:29;;;;;;;2.83;2.00;;;6.70;78.20;;;;;;5008126;28;20041;-74
2020/12/26 07:17:04;;;;;;;4.35;2.13;;;6.70;78.20;;;;;;5005908;28;20120;-73
2020/12/26 07:19:40;;;;;;;1.92;1.80;;;6.70;78.20;;;;;;5013498;28;20511;-73
2020/12/26 07:22:13;;;;;;;2.83;2.13;;;6.70;78.30;;;;;;5003921;28;20064;-74
2020/12/26 07:24:41;;;;;;;2.40;2.20;;;6.70;78.30;;;;;;5006777;28;20262;-73
2020/12/26 07:27:17;;;;;;;2.13;1.92;;;6.80;78.50;;;;;;4988344;28;20034;-72
2020/12/26 07:29:49;;;;;;;2.30;2.13;;;6.80;78.60;;;;;;5005942;28;20041;-76
2020/12/26 07:32:50;;;;;;;2.63;2.10;;;6.80;78.60;;;;;;5004893;28;20125;-71
2020/12/26 07:35:21;;;;;;;2.30;1.83;;;6.80;78.70;;;;;;5005457;28;20041;-72
2020/12/26 07:37:53;;;;;;;3.45;2.13;;;6.80;78.60;;;;;;5005275;28;20405;-72
2020/12/26 07:40:24;;;;;;;3.08;2.28;;;6.90;78.90;;;;;;5007013;28;20136;-71
2020/12/26 07:42:50;;;;;;;2.40;2.20;;;6.90;78.90;;;;;;5004874;28;20489;-71
2020/12/26 07:45:19;;;;;;;4.32;2.00;;;6.90;78.90;;;;;;5006956;28;20071;-73
2020/12/26 07:47:48;;;;;;;2.05;1.80;;;7.00;79.20;;;;;;5006550;28;20440;-71
2020/12/26 07:50:16;;;;;;;2.58;2.08;;;7.00;79.20;;;;;;5006242;28;20046;-71
2020/12/26 07:52:53;;;;;;;2.17;2.00;;;7.00;79.20;;;;;;5006383;28;20033;-71
2020/12/26 07:55:19;;;;;;;5.57;2.10;;;7.00;79.30;;;;;;5004332;28;20040;-72
2020/12/26 07:57:46;;;;;;;1.90;1.80;;;7.10;79.40;;;;;;5005802;28;20049;-73
2020/12/26 08:00:26;;;;;;;4.38;2.17;;;7.10;79.40;;;;;;5004120;28;20160;-72
2020/12/26 08:03:03;;;;;;;2.17;2.00;;;7.10;79.50;;;;;;5021167;28;20618;-74
2020/12/26 08:05:34;;;;;;;2.88;2.00;;;7.20;79.70;;;;;;5004608;28;20025;-79
2020/12/26 08:08:11;;;;;;;1.70;1.60;;;7.20;79.70;;;;;;5003877;28;20057;-73
2020/12/26 08:10:37;;;;;;;2.28;2.00;;;7.20;79.70;;;;;;5005624;28;20030;-73
2020/12/26 08:13:03;;;;;;;1.92;1.83;;;7.20;79.70;;;;;;5006737;28;20408;-73
2020/12/26 08:15:30;;;;;;;1.60;1.50;;;7.20;79.70;;;;;;5005097;28;20072;-74
2020/12/26 08:18:02;;;;;;;2.95;2.28;;;7.20;79.80;;;;;;5005922;28;20073;-72
2020/12/26 08:20:29;;;;;;;2.00;1.90;;;7.30;80.00;;;;;;5003440;28;20029;-74
2020/12/26 08:22:56;;;;;;;8.25;2.38;;;7.30;80.00;;;;;;5004742;28;20030;-72
2020/12/26 08:25:24;;;;;;;1.77;1.67;;;7.30;80.10;;;;;;5005995;28;20038;-72
2020/12/26 08:27:51;;;;;;;2.65;1.77;;;7.30;80.10;;;;;;5003913;28;20033;-73
2020/12/26 08:30:21;;;;;;;2.85;1.80;;;7.40;80.30;;;;;;4987922;28;20053;-72
2020/12/26 08:33:11;;;;;;;1.48;1.38;;;7.40;80.30;;;;;;4988234;28;20504;-72
2020/12/26 08:35:53;;;;;;;1.80;1.67;;;7.40;80.30;;;;;;5004310;28;20041;-72
2020/12/26 08:38:46;;;;;;;2.10;1.90;;;7.50;80.50;;;;;;4999817;28;20026;-72
2020/12/26 08:41:16;;;;;;;3.40;1.80;;;7.50;80.60;;;;;;4999043;28;20064;-73
2020/12/26 08:43:42;;;;;;;1.80;1.48;;;7.50;80.50;;;;;;5020389;28;20038;-72
2020/12/26 08:46:15;;;;;;;2.67;1.85;;;7.50;80.50;;;;;;4986785;28;20037;-73
2020/12/26 08:48:42;;;;;;;1.50;1.40;;;7.60;80.70;;;;;;4982619;28;20042;-73
2020/12/26 08:51:39;;;;;;;2.15;1.77;;;7.60;80.70;;;;;;5003958;28;20026;-73
2020/12/26 08:54:06;;;;;;;2.30;1.73;;;7.70;81.00;;;;;;4995544;28;20176;-71
2020/12/26 08:56:34;;;;;;;2.92;1.35;;;7.70;80.90;;;;;;4988242;28;20478;-73
2020/12/26 08:59:00;;;;;;;4.63;1.92;;;7.70;80.90;;;;;;4990982;28;20141;-74
2020/12/26 09:01:26;;;;;;;2.45;1.80;;;7.70;80.90;;;;;;5016177;28;20029;-73
2020/12/26 09:03:53;;;;;;;1.90;1.80;;;7.80;81.10;;;;;;5003193;28;20121;-73
2020/12/26 09:06:40;;;;;;;3.35;1.70;;;7.80;81.20;;;;;;5003368;28;20541;-73
2020/12/26 09:09:20;;;;;;;2.47;2.00;;;7.90;81.40;;;;;;5004671;28;20056;-73
2020/12/26 09:11:58;;;;;;;3.08;2.00;;;7.90;81.40;;;;;;5004746;28;20459;-75
2020/12/26 09:14:24;;;;;;;2.70;1.98;;;7.90;81.30;;;;;;4987162;28;20565;-73
2020/12/26 09:16:58;;;;;;;4.63;2.17;;;7.90;81.40;;;;;;5003241;28;20034;-72
2020/12/26 09:19:25;;;;;;;5.78;2.13;;;8.00;81.60;;;;;;5003038;28;20119;-73
2020/12/26 09:21:51;;;;;;;2.33;1.95;;;8.00;81.60;;;;;;5005090;28;20034;-75
2020/12/26 09:24:20;;;;;;;3.00;1.90;;;8.10;81.80;;;;;;5003373;28;20488;-74
2020/12/26 09:26:47;;;;;;;3.67;2.40;;;8.10;81.90;;;;;;5004155;28;20108;-75
2020/12/26 09:29:21;;;;;;;5.95;2.08;;;8.20;82.00;;;;;;5003829;28;20038;-74
2020/12/26 09:31:47;;;;;;;;;;;8.20;82.10;;;;;;5003078;28;20524;-74
2020/12/26 09:34:16;;;;;;;3.22;2.20;;;8.30;82.20;;;;;;5002919;28;19944;-74
2020/12/26 09:36:43;;;;;;;5.72;2.28;;;8.30;82.00;;;;;;5002912;28;20129;-72
2020/12/26 09:39:09;;;;;;;2.63;1.95;;;8.30;82.00;;;;;;4997109;28;20022;-74
2020/12/26 09:41:49;;;;;;;3.10;2.13;;;8.40;82.30;;;;;;4995350;28;20041;-74
2020/12/26 09:44:15;;;;;;;6.00;2.20;;;8.40;82.40;;;;;;5000026;28;20061;-77
2020/12/26 09:46:42;;;;;;;4.13;2.20;;;8.50;82.50;;;;;;5004416;28;20225;-73
2020/12/26 09:49:09;;;;;;;2.83;2.25;;;8.50;82.50;;;;;;5001210;28;20064;-74
2020/12/26 09:51:35;;;;;;;9.30;2.92;;;8.50;82.60;;;;;;5004761;28;20041;-75
2020/12/26 09:54:01;;;;;;;3.15;2.30;;;8.60;82.70;;;;;;5018599;28;20030;-75
2020/12/26 09:56:27;;;;;;;3.08;2.28;;;8.60;82.80;;;;;;4986538;28;20041;-75
2020/12/26 09:58:54;;;;;;;6.78;2.20;;;8.70;83.00;;;;;;5002348;28;20060;-75
2020/12/26 10:01:21;;;;;;;7.30;2.55;;;8.70;83.00;;;;;;5004507;28;20067;-74
2020/12/26 10:03:49;;;;;;;7.30;2.28;;;8.80;83.20;;;;;;5004121;28;20042;-77
2020/12/26 10:06:20;;;;;;;8.45;2.67;;;8.90;83.40;;;;;;5004538;28;20497;-76
2020/12/26 10:08:47;;;;;;;7.28;2.28;;;9.00;83.50;;;;;;5007109;28;20131;-76
2020/12/26 10:11:16;;;;;;;10.35;2.78;;;9.10;83.70;;;;;;5006889;28;20042;-75
2020/12/26 10:13:43;;;;;;;8.35;2.67;;;9.20;83.80;;;;;;5008266;28;20044;-75
2020/12/26 10:16:10;;;;;;;5.57;2.50;;;9.30;83.90;;;;;;5008583;28;20220;-76
2020/12/26 10:18:36;;;;;;;8.70;2.67;;;9.30;83.90;;;;;;5008334;28;20468;-75
2020/12/26 10:21:03;;;;;;;5.00;2.78;;;9.40;84.10;;;;;;5007958;28;20035;-74
2020/12/26 10:23:29;;;;;;;6.30;2.20;;;9.40;84.10;;;;;;5008606;28;20346;-74
2020/12/26 10:25:55;;;;;;;3.67;1.98;;;9.60;84.70;;;;;;5008214;28;20207;-75
2020/12/26 10:28:21;;;;;;;5.90;1.90;;;9.70;84.80;;;;;;5003913;28;20084;-75
2020/12/26 10:30:47;;;;;;;9.35;2.40;;;9.80;84.80;;;;;;5005737;28;20057;-75
2020/12/26 10:33:13;;;;;;;2.88;2.38;;;10.00;85.00;;;;;;5007882;28;20129;-75
2020/12/26 10:35:40;;;;;;;9.23;2.85;;;10.00;85.00;;;;;;5006657;28;20034;-75
2020/12/26 10:38:06;;;;;;;7.85;1.77;;;10.10;85.00;;;;;;4999637;28;20041;-78
2020/12/26 10:40:32;;;;;;;9.68;3.45;;;10.20;85.20;;;;;;5004988;28;20026;-76
2020/12/26 10:42:58;;;;;;;9.88;2.42;;;10.20;85.00;;;;;;5004275;28;20046;-79
2020/12/26 10:45:24;;;;;;;7.15;3.35;;;10.30;85.20;;;;;;4989180;28;20034;-83
2020/12/26 10:47:51;;;;;;;4.93;2.38;;;10.40;85.50;;;;;;4988527;28;20113;-82
2020/12/26 10:50:16;;;;;;;13.27;3.45;;;10.40;85.50;;;;;;4989652;28;20084;-80
2020/12/26 10:52:44;;;;;;;9.30;2.67;;;10.60;86.20;;;;;;5008603;28;20552;-84
2020/12/26 10:55:15;;;;;;;7.15;2.28;;;10.70;86.20;;;;;;4998666;28;20087;-81
2020/12/26 10:57:43;;;;;;;7.45;2.28;;;10.80;86.20;;;;;;4991236;28;20057;-81
2020/12/26 11:00:13;;;;;;;7.28;2.25;;;10.90;86.20;;;;;;5008972;28;20040;-81
2020/12/26 11:02:39;;;;;;;9.73;3.08;;;10.90;86.20;;;;;;4995172;28;20034;-77
2020/12/26 11:05:08;;;;;;;8.27;2.58;;;11.00;86.40;;;;;;5008949;28;20270;-84
2020/12/26 11:07:34;;;;;;;7.32;2.50;;;11.00;86.50;;;;;;5024631;28;20535;-81
2020/12/26 11:10:00;;;;;;;10.32;3.22;;;11.00;86.40;;;;;;5008468;28;20036;-80
2020/12/26 11:12:27;;;;;;;7.25;2.83;;;11.00;86.40;;;;;;5009445;28;20033;-82
2020/12/26 11:14:53;;;;;;;9.20;2.78;;;11.10;86.70;;;;;;5015350;28;20026;-90
2020/12/26 11:17:19;;;;;;;8.68;3.15;;;11.10;86.70;;;;;;4997637;28;20121;-85
2020/12/26 11:19:45;;;;;;;7.93;3.33;;;11.10;86.80;;;;;;5012720;28;20026;-85
2020/12/26 11:22:11;;;;;;;10.55;3.00;;;11.20;86.90;;;;;;5010915;28;20041;-83
2020/12/26 11:24:37;;;;;;;10.38;2.78;;;11.10;86.70;;;;;;5009415;28;20069;-85
2020/12/26 11:27:03;;;;;;;10.63;2.85;;;11.20;86.90;;;;;;5009547;28;20034;-82
2020/12/26 11:29:30;;;;;;;7.50;2.30;;;11.20;86.90;;;;;;4994298;28;20465;-83
2020/12/26 11:31:58;;;;;;;7.00;2.08;;;11.20;86.80;;;;;;4991680;28;20371;-83
2020/12/26 11:34:24;;;;;;;5.18;2.10;;;11.20;86.70;;;;;;5010272;28;20045;-86
2020/12/26 11:36:50;;;;;;;6.03;2.38;;;11.20;86.70;;;;;;4997230;28;20101;-85
2020/12/26 11:39:16;;;;;;;7.95;2.58;;;11.20;86.70;;;;;;5005539;28;20038;-85
2020/12/26 11:41:42;;;;;;;3.28;1.98;;;11.20;86.60;;;;;;5011576;28;20026;-84
2020/12/26 11:44:08;;;;;;;3.45;2.42;;;11.20;86.60;;;;;;4995590;28;20038;-80
2020/12/26 11:46:34;;;;;;;5.82;2.72;;;11.20;86.60;;;;;;5010071;28;20092;-83
2020/12/26 11:49:01;;;;;;;5.45;2.72;;;11.20;86.60;;;;;;5007085;28;20054;-81
2020/12/26 11:51:27;;;;;;;6.28;3.13;;;11.20;86.50;;;;;;5005779;28;20477;-82
2020/12/26 11:53:53;;;;;;;5.22;2.72;;;11.20;86.50;;;;;;5012892;28;20061;-82
2020/12/26 11:56:19;;;;;;;5.40;2.90;;;11.20;86.40;;;;;;5008236;28;20030;-81
2020/12/26 11:58:45;;;;;;;2.97;2.00;;;11.20;86.30;;;;;;5009406;28;20037;-81
2020/12/26 12:01:16;;;;;;;2.92;2.53;;;11.20;86.20;;;;;;4993501;28;20382;-82
2020/12/26 12:03:43;;;;;;;4.68;2.50;;;11.20;86.20;;;;;;5009741;28;20045;-82
2020/12/26 12:06:13;;;;;;;8.55;3.13;;;11.20;86.10;;;;;;5005976;28;20040;-81
2020/12/26 12:08:40;;;;;;;3.35;2.50;;;11.20;86.00;;;;;;5007098;28;20026;-82
2020/12/26 12:11:07;;;;;;;4.70;2.45;;;11.20;85.90;;;;;;5007072;28;20091;-85
2020/12/26 12:13:33;;;;;;;3.55;2.45;;;11.30;86.10;;;;;;5007351;28;20496;-82
2020/12/26 12:15:58;;;;;;;5.60;2.47;;;11.30;86.00;;;;;;5008519;28;20144;-81
2020/12/26 12:18:24;;;;;;;8.40;2.83;;;11.30;85.90;;;;;;5023369;28;20144;-80
2020/12/26 12:20:50;;;;;;;4.75;2.47;;;11.30;85.80;;;;;;5022725;28;20034;-81
2020/12/26 12:23:16;;;;;;;5.20;2.47;;;11.30;85.80;;;;;;5007080;28;20381;-81
2020/12/26 12:25:42;;;;;;;6.75;2.20;;;11.30;85.70;;;;;;5007886;28;20336;-82
2020/12/26 12:28:08;;;;;;;5.30;2.13;;;11.30;85.70;;;;;;5009722;28;20030;-84
2020/12/26 12:30:34;;;;;;;4.45;2.25;;;11.30;85.60;;;;;;4986945;28;20414;-83
2020/12/26 12:33:00;;;;;;;5.07;2.20;;;11.30;85.60;;;;;;5006066;28;20655;-80
2020/12/26 12:35:26;;;;;;;3.17;2.15;;;11.30;85.50;;;;;;5005243;28;20397;-81
2020/12/26 12:37:52;;;;;;;5.50;2.40;;;11.30;85.40;;;;;;5007431;28;20026;-81
2020/12/26 12:40:18;;;;;;;4.57;2.13;;;11.30;85.40;;;;;;4991157;28;20042;-80
2020/12/26 12:42:45;;;;;;;3.58;1.73;;;11.30;85.30;;;;;;4989074;28;20129;-81
2020/12/26 12:45:12;;;;;;;5.50;2.40;;;11.30;85.30;;;;;;4990993;28;20060;-81
2020/12/26 12:47:38;;;;;;;2.65;1.95;;;11.30;85.20;;;;;;5009884;28;20026;-84
2020/12/26 12:50:07;;;;;;;4.70;2.03;;;11.40;85.30;;;;;;5011186;28;20049;-83
2020/12/26 12:52:33;;;;;;;4.28;2.30;;;11.40;85.30;;;;;;4993107;28;20033;-80
2020/12/26 12:54:59;;;;;;;5.15;2.60;;;11.40;85.20;;;;;;5004209;28;20061;-80
2020/12/26 12:57:25;;;;;;;3.17;1.77;;;11.40;85.10;;;;;;4989589;28;20076;-81
2020/12/26 12:59:51;;;;;;;3.00;1.63;;;11.50;85.30;;;;;;4988191;28;20041;-80